sensor_id;sensor_type;location;lat;lon;timestamp;P1;durP1;ratioP1;P2;durP2;ratioP2
1775;SDS011;885;42.626;23.200;2023-07-28T00:01:31;3.43;;;3.00;;
1775;SDS011;885;42.626;23.200;2023-07-28T00:03:57;3.83;;;3.53;;
1775;SDS011;885;42.626;23.200;2023-07-28T00:06:24;3.20;;;2.77;;
1775;SDS011;885;42.626;23.200;2023-07-28T00:08:51;3.87;;;3.30;;
1775;SDS011;885;42.626;23.200;2023-07-28T00:11:19;4.73;;;4.43;;
1775;SDS011;885;42.626;23.200;2023-07-28T00:13:49;3.80;;;3.27;;
1775;SDS011;885;42.626;23.200;2023-07-28T00:16:19;3.80;;;3.50;;
1775;SDS011;885;42.626;23.200;2023-07-28T00:18:45;3.80;;;3.23;;
1775;SDS011;885;42.626;23.200;2023-07-28T00:21:12;3.70;;;3.40;;
1775;SDS011;885;42.626;23.200;2023-07-28T00:23:39;3.83;;;3.53;;
1775;SDS011;885;42.626;23.200;2023-07-28T00:26:06;3.63;;;3.33;;
1775;SDS011;885;42.626;23.200;2023-07-28T00:28:35;3.17;;;2.97;;
1775;SDS011;885;42.626;23.200;2023-07-28T00:31:02;4.07;;;3.57;;
1775;SDS011;885;42.626;23.200;2023-07-28T00:33:29;3.40;;;3.10;;
1775;SDS011;885;42.626;23.200;2023-07-28T00:35:55;5.23;;;3.30;;
1775;SDS011;885;42.626;23.200;2023-07-28T00:38:22;3.17;;;2.87;;
1775;SDS011;885;42.626;23.200;2023-07-28T00:40:49;3.63;;;3.33;;
1775;SDS011;885;42.626;23.200;2023-07-28T00:43:16;3.53;;;3.23;;
1775;SDS011;885;42.626;23.200;2023-07-28T00:45:44;3.40;;;3.10;;
1775;SDS011;885;42.626;23.200;2023-07-28T00:48:12;7.03;;;3.60;;
1775;SDS011;885;42.626;23.200;2023-07-28T00:50:41;3.97;;;3.67;;
1775;SDS011;885;42.626;23.200;2023-07-28T00:53:08;2.93;;;2.63;;
1775;SDS011;885;42.626;23.200;2023-07-28T00:55:35;4.23;;;3.20;;
1775;SDS011;885;42.626;23.200;2023-07-28T00:58:03;4.27;;;3.97;;
1775;SDS011;885;42.626;23.200;2023-07-28T01:00:29;3.73;;;3.40;;
1775;SDS011;885;42.626;23.200;2023-07-28T01:02:57;3.93;;;3.53;;
1775;SDS011;885;42.626;23.200;2023-07-28T01:05:26;3.30;;;3.00;;
1775;SDS011;885;42.626;23.200;2023-07-28T01:07:58;3.60;;;3.30;;
1775;SDS011;885;42.626;23.200;2023-07-28T01:10:30;3.67;;;3.37;;
1775;SDS011;885;42.626;23.200;2023-07-28T01:12:58;3.37;;;3.07;;
1775;SDS011;885;42.626;23.200;2023-07-28T01:15:25;3.60;;;3.30;;
1775;SDS011;885;42.626;23.200;2023-07-28T01:17:52;3.90;;;3.43;;
1775;SDS011;885;42.626;23.200;2023-07-28T01:20:20;3.20;;;2.90;;
1775;SDS011;885;42.626;23.200;2023-07-28T01:22:53;3.70;;;3.40;;
1775;SDS011;885;42.626;23.200;2023-07-28T01:25:32;3.90;;;3.50;;
1775;SDS011;885;42.626;23.200;2023-07-28T01:28:11;4.63;;;3.63;;
1775;SDS011;885;42.626;23.200;2023-07-28T01:30:39;3.60;;;3.30;;
1775;SDS011;885;42.626;23.200;2023-07-28T01:33:07;3.70;;;3.40;;
1775;SDS011;885;42.626;23.200;2023-07-28T01:35:35;4.00;;;3.70;;
1775;SDS011;885;42.626;23.200;2023-07-28T01:38:03;3.67;;;3.37;;
1775;SDS011;885;42.626;23.200;2023-07-28T01:40:30;3.40;;;3.20;;
1775;SDS011;885;42.626;23.200;2023-07-28T01:42:57;4.03;;;3.57;;
1775;SDS011;885;42.626;23.200;2023-07-28T01:45:25;3.80;;;3.20;;
1775;SDS011;885;42.626;23.200;2023-07-28T01:47:52;4.87;;;3.33;;
1775;SDS011;885;42.626;23.200;2023-07-28T01:50:18;3.13;;;2.93;;
1775;SDS011;885;42.626;23.200;2023-07-28T01:52:45;4.50;;;3.80;;
1775;SDS011;885;42.626;23.200;2023-07-28T01:55:12;3.40;;;3.20;;
1775;SDS011;885;42.626;23.200;2023-07-28T01:57:38;3.00;;;2.80;;
1775;SDS011;885;42.626;23.200;2023-07-28T02:00:06;2.87;;;2.67;;
1775;SDS011;885;42.626;23.200;2023-07-28T02:02:35;3.10;;;2.80;;
1775;SDS011;885;42.626;23.200;2023-07-28T02:05:02;2.77;;;2.57;;
1775;SDS011;885;42.626;23.200;2023-07-28T02:07:29;3.70;;;2.70;;
1775;SDS011;885;42.626;23.200;2023-07-28T02:09:56;2.70;;;2.50;;
1775;SDS011;885;42.626;23.200;2023-07-28T02:12:23;2.50;;;2.30;;
1775;SDS011;885;42.626;23.200;2023-07-28T02:14:50;3.00;;;2.80;;
1775;SDS011;885;42.626;23.200;2023-07-28T02:17:17;3.23;;;2.97;;
1775;SDS011;885;42.626;23.200;2023-07-28T02:19:45;3.90;;;3.17;;
1775;SDS011;885;42.626;23.200;2023-07-28T02:22:12;3.73;;;3.30;;
1775;SDS011;885;42.626;23.200;2023-07-28T02:24:39;3.37;;;3.07;;
1775;SDS011;885;42.626;23.200;2023-07-28T02:27:05;3.30;;;3.00;;
1775;SDS011;885;42.626;23.200;2023-07-28T02:29:32;3.57;;;3.27;;
1775;SDS011;885;42.626;23.200;2023-07-28T02:31:59;3.20;;;2.97;;
1775;SDS011;885;42.626;23.200;2023-07-28T02:34:26;3.30;;;3.10;;
1775;SDS011;885;42.626;23.200;2023-07-28T02:36:54;3.87;;;3.57;;
1775;SDS011;885;42.626;23.200;2023-07-28T02:39:21;3.87;;;3.37;;
1775;SDS011;885;42.626;23.200;2023-07-28T02:41:46;4.10;;;3.80;;
1775;SDS011;885;42.626;23.200;2023-07-28T02:44:13;3.87;;;3.57;;
1775;SDS011;885;42.626;23.200;2023-07-28T02:46:40;3.60;;;3.30;;
1775;SDS011;885;42.626;23.200;2023-07-28T02:49:06;3.60;;;3.30;;
1775;SDS011;885;42.626;23.200;2023-07-28T02:51:33;3.27;;;2.90;;
1775;SDS011;885;42.626;23.200;2023-07-28T02:54:01;7.03;;;3.53;;
1775;SDS011;885;42.626;23.200;2023-07-28T02:56:28;3.07;;;2.87;;
1775;SDS011;885;42.626;23.200;2023-07-28T02:58:59;3.97;;;3.53;;
1775;SDS011;885;42.626;23.200;2023-07-28T03:01:26;4.70;;;3.17;;
1775;SDS011;885;42.626;23.200;2023-07-28T03:03:53;3.50;;;3.20;;
1775;SDS011;885;42.626;23.200;2023-07-28T03:06:20;3.70;;;3.40;;
1775;SDS011;885;42.626;23.200;2023-07-28T03:08:46;3.40;;;3.10;;
1775;SDS011;885;42.626;23.200;2023-07-28T03:11:14;3.50;;;3.20;;
1775;SDS011;885;42.626;23.200;2023-07-28T03:13:41;3.47;;;3.17;;
1775;SDS011;885;42.626;23.200;2023-07-28T03:16:08;3.60;;;3.10;;
1775;SDS011;885;42.626;23.200;2023-07-28T03:18:35;4.20;;;3.90;;
1775;SDS011;885;42.626;23.200;2023-07-28T03:21:01;4.77;;;4.37;;
1775;SDS011;885;42.626;23.200;2023-07-28T03:23:28;3.67;;;3.37;;
1775;SDS011;885;42.626;23.200;2023-07-28T03:25:55;5.57;;;3.13;;
1775;SDS011;885;42.626;23.200;2023-07-28T03:28:23;4.67;;;4.27;;
1775;SDS011;885;42.626;23.200;2023-07-28T03:30:50;3.73;;;3.43;;
1775;SDS011;885;42.626;23.200;2023-07-28T03:33:17;3.80;;;3.50;;
1775;SDS011;885;42.626;23.200;2023-07-28T03:35:44;3.40;;;3.20;;
1775;SDS011;885;42.626;23.200;2023-07-28T03:38:10;3.70;;;3.40;;
1775;SDS011;885;42.626;23.200;2023-07-28T03:40:37;3.90;;;3.60;;
1775;SDS011;885;42.626;23.200;2023-07-28T03:43:04;3.60;;;3.30;;
1775;SDS011;885;42.626;23.200;2023-07-28T03:45:32;3.70;;;3.40;;
1775;SDS011;885;42.626;23.200;2023-07-28T03:47:59;3.60;;;3.30;;
1775;SDS011;885;42.626;23.200;2023-07-28T03:50:25;3.77;;;3.00;;
1775;SDS011;885;42.626;23.200;2023-07-28T03:52:53;3.30;;;3.00;;
1775;SDS011;885;42.626;23.200;2023-07-28T03:55:20;3.80;;;3.40;;
1775;SDS011;885;42.626;23.200;2023-07-28T03:57:46;4.40;;;3.73;;
1775;SDS011;885;42.626;23.200;2023-07-28T04:00:13;3.70;;;3.40;;
1775;SDS011;885;42.626;23.200;2023-07-28T04:02:41;3.60;;;3.30;;
1775;SDS011;885;42.626;23.200;2023-07-28T04:05:08;4.33;;;3.93;;
1775;SDS011;885;42.626;23.200;2023-07-28T04:07:35;4.03;;;3.73;;
1775;SDS011;885;42.626;23.200;2023-07-28T04:10:02;4.00;;;3.53;;
1775;SDS011;885;42.626;23.200;2023-07-28T04:12:29;5.10;;;4.43;;
1775;SDS011;885;42.626;23.200;2023-07-28T04:14:55;4.57;;;4.17;;
1775;SDS011;885;42.626;23.200;2023-07-28T04:17:22;3.63;;;3.33;;
1775;SDS011;885;42.626;23.200;2023-07-28T04:19:50;4.70;;;3.90;;
1775;SDS011;885;42.626;23.200;2023-07-28T04:22:17;3.20;;;2.90;;
1775;SDS011;885;42.626;23.200;2023-07-28T04:24:46;3.50;;;3.20;;
1775;SDS011;885;42.626;23.200;2023-07-28T04:27:14;4.67;;;4.27;;
1775;SDS011;885;42.626;23.200;2023-07-28T04:29:41;4.13;;;3.83;;
1775;SDS011;885;42.626;23.200;2023-07-28T04:32:08;5.03;;;4.53;;
1775;SDS011;885;42.626;23.200;2023-07-28T04:34:34;3.73;;;3.43;;
1775;SDS011;885;42.626;23.200;2023-07-28T04:37:03;3.80;;;3.50;;
1775;SDS011;885;42.626;23.200;2023-07-28T04:39:30;4.57;;;4.17;;
1775;SDS011;885;42.626;23.200;2023-07-28T04:41:57;4.80;;;4.40;;
1775;SDS011;885;42.626;23.200;2023-07-28T04:44:24;5.30;;;4.57;;
1775;SDS011;885;42.626;23.200;2023-07-28T04:46:50;4.83;;;4.43;;
1775;SDS011;885;42.626;23.200;2023-07-28T04:49:17;4.23;;;3.93;;
1775;SDS011;885;42.626;23.200;2023-07-28T04:51:45;4.20;;;3.90;;
1775;SDS011;885;42.626;23.200;2023-07-28T04:54:14;4.50;;;4.10;;
1775;SDS011;885;42.626;23.200;2023-07-28T04:56:40;4.93;;;4.40;;
1775;SDS011;885;42.626;23.200;2023-07-28T04:59:07;5.00;;;4.60;;
1775;SDS011;885;42.626;23.200;2023-07-28T05:01:34;4.70;;;4.30;;
1775;SDS011;885;42.626;23.200;2023-07-28T05:04:00;4.67;;;4.37;;
1775;SDS011;885;42.626;23.200;2023-07-28T05:06:27;4.90;;;4.40;;
1775;SDS011;885;42.626;23.200;2023-07-28T05:08:54;4.40;;;4.10;;
1775;SDS011;885;42.626;23.200;2023-07-28T05:11:22;5.83;;;4.27;;
1775;SDS011;885;42.626;23.200;2023-07-28T05:13:49;4.40;;;4.10;;
1775;SDS011;885;42.626;23.200;2023-07-28T05:16:15;4.57;;;4.27;;
1775;SDS011;885;42.626;23.200;2023-07-28T05:18:42;4.50;;;4.20;;
1775;SDS011;885;42.626;23.200;2023-07-28T05:21:09;3.87;;;3.57;;
1775;SDS011;885;42.626;23.200;2023-07-28T05:23:35;4.20;;;3.87;;
1775;SDS011;885;42.626;23.200;2023-07-28T05:26:02;4.80;;;4.40;;
1775;SDS011;885;42.626;23.200;2023-07-28T05:28:33;4.30;;;3.90;;
1775;SDS011;885;42.626;23.200;2023-07-28T05:31:03;4.40;;;4.00;;
1775;SDS011;885;42.626;23.200;2023-07-28T05:33:30;4.57;;;4.17;;
1775;SDS011;885;42.626;23.200;2023-07-28T05:36:01;4.77;;;4.37;;
1775;SDS011;885;42.626;23.200;2023-07-28T05:38:28;4.90;;;4.17;;
1775;SDS011;885;42.626;23.200;2023-07-28T05:40:58;4.23;;;3.93;;
1775;SDS011;885;42.626;23.200;2023-07-28T05:43:28;4.57;;;4.23;;
1775;SDS011;885;42.626;23.200;2023-07-28T05:45:56;4.70;;;4.13;;
1775;SDS011;885;42.626;23.200;2023-07-28T05:48:24;5.17;;;4.17;;
1775;SDS011;885;42.626;23.200;2023-07-28T05:50:51;4.30;;;4.00;;
1775;SDS011;885;42.626;23.200;2023-07-28T05:53:19;4.83;;;4.33;;
1775;SDS011;885;42.626;23.200;2023-07-28T05:55:46;4.80;;;4.40;;
1775;SDS011;885;42.626;23.200;2023-07-28T05:58:15;5.07;;;4.67;;
1775;SDS011;885;42.626;23.200;2023-07-28T06:00:42;4.10;;;3.80;;
1775;SDS011;885;42.626;23.200;2023-07-28T06:03:10;3.90;;;3.60;;
1775;SDS011;885;42.626;23.200;2023-07-28T06:05:38;3.90;;;3.60;;
1775;SDS011;885;42.626;23.200;2023-07-28T06:08:05;3.97;;;3.67;;
1775;SDS011;885;42.626;23.200;2023-07-28T06:10:32;3.67;;;3.40;;
1775;SDS011;885;42.626;23.200;2023-07-28T06:12:59;3.93;;;3.63;;
1775;SDS011;885;42.626;23.200;2023-07-28T06:15:26;3.20;;;2.90;;
1775;SDS011;885;42.626;23.200;2023-07-28T06:17:52;3.07;;;2.87;;
1775;SDS011;885;42.626;23.200;2023-07-28T06:20:20;4.33;;;3.17;;
1775;SDS011;885;42.626;23.200;2023-07-28T06:22:47;3.67;;;3.37;;
1775;SDS011;885;42.626;23.200;2023-07-28T06:25:14;6.07;;;3.67;;
1775;SDS011;885;42.626;23.200;2023-07-28T06:27:41;3.77;;;3.20;;
1775;SDS011;885;42.626;23.200;2023-07-28T06:30:08;3.87;;;3.50;;
1775;SDS011;885;42.626;23.200;2023-07-28T06:32:35;2.93;;;2.73;;
1775;SDS011;885;42.626;23.200;2023-07-28T06:35:02;3.50;;;3.20;;
1775;SDS011;885;42.626;23.200;2023-07-28T06:37:30;3.47;;;3.17;;
1775;SDS011;885;42.626;23.200;2023-07-28T06:39:57;2.97;;;2.77;;
1775;SDS011;885;42.626;23.200;2023-07-28T06:42:24;3.50;;;2.90;;
1775;SDS011;885;42.626;23.200;2023-07-28T06:44:51;3.47;;;3.17;;
1775;SDS011;885;42.626;23.200;2023-07-28T06:47:18;3.77;;;3.47;;
1775;SDS011;885;42.626;23.200;2023-07-28T06:49:45;3.23;;;2.93;;
1775;SDS011;885;42.626;23.200;2023-07-28T06:52:11;3.97;;;3.47;;
1775;SDS011;885;42.626;23.200;2023-07-28T06:54:40;3.50;;;3.20;;
1775;SDS011;885;42.626;23.200;2023-07-28T06:57:06;7.23;;;3.50;;
1775;SDS011;885;42.626;23.200;2023-07-28T06:59:33;4.70;;;3.33;;
1775;SDS011;885;42.626;23.200;2023-07-28T07:02:00;3.97;;;3.23;;
1775;SDS011;885;42.626;23.200;2023-07-28T07:04:27;3.83;;;3.53;;
1775;SDS011;885;42.626;23.200;2023-07-28T07:06:53;5.33;;;4.00;;
1775;SDS011;885;42.626;23.200;2023-07-28T07:09:20;5.10;;;3.93;;
1775;SDS011;885;42.626;23.200;2023-07-28T07:11:48;4.03;;;3.73;;
1775;SDS011;885;42.626;23.200;2023-07-28T07:14:15;6.73;;;4.10;;
1775;SDS011;885;42.626;23.200;2023-07-28T07:16:42;5.90;;;4.17;;
1775;SDS011;885;42.626;23.200;2023-07-28T07:19:09;5.97;;;3.63;;
1775;SDS011;885;42.626;23.200;2023-07-28T07:21:36;4.70;;;4.20;;
1775;SDS011;885;42.626;23.200;2023-07-28T07:24:03;4.23;;;3.80;;
1775;SDS011;885;42.626;23.200;2023-07-28T07:26:30;3.90;;;3.50;;
1775;SDS011;885;42.626;23.200;2023-07-28T07:28:58;4.87;;;3.83;;
1775;SDS011;885;42.626;23.200;2023-07-28T07:31:25;3.60;;;3.17;;
1775;SDS011;885;42.626;23.200;2023-07-28T07:33:52;3.63;;;3.07;;
1775;SDS011;885;42.626;23.200;2023-07-28T07:36:19;3.47;;;3.17;;
1775;SDS011;885;42.626;23.200;2023-07-28T07:38:46;6.90;;;3.80;;
1775;SDS011;885;42.626;23.200;2023-07-28T07:41:13;3.40;;;3.10;;
1775;SDS011;885;42.626;23.200;2023-07-28T07:43:44;7.60;;;3.10;;
1775;SDS011;885;42.626;23.200;2023-07-28T07:46:13;3.70;;;3.40;;
1775;SDS011;885;42.626;23.200;2023-07-28T07:48:40;3.43;;;3.13;;
1775;SDS011;885;42.626;23.200;2023-07-28T07:51:07;5.13;;;2.87;;
1775;SDS011;885;42.626;23.200;2023-07-28T07:53:34;5.53;;;2.83;;
1775;SDS011;885;42.626;23.200;2023-07-28T07:56:02;2.73;;;2.53;;
1775;SDS011;885;42.626;23.200;2023-07-28T07:58:29;3.93;;;2.47;;
1775;SDS011;885;42.626;23.200;2023-07-28T08:00:58;6.33;;;3.23;;
1775;SDS011;885;42.626;23.200;2023-07-28T08:03:26;3.90;;;3.03;;
1775;SDS011;885;42.626;23.200;2023-07-28T08:05:53;3.23;;;2.93;;
1775;SDS011;885;42.626;23.200;2023-07-28T08:08:20;6.90;;;2.93;;
1775;SDS011;885;42.626;23.200;2023-07-28T08:10:48;2.80;;;2.60;;
1775;SDS011;885;42.626;23.200;2023-07-28T08:13:15;4.63;;;2.63;;
1775;SDS011;885;42.626;23.200;2023-07-28T08:15:42;2.93;;;2.73;;
1775;SDS011;885;42.626;23.200;2023-07-28T08:18:10;3.17;;;2.47;;
1775;SDS011;885;42.626;23.200;2023-07-28T08:20:39;3.80;;;2.80;;
1775;SDS011;885;42.626;23.200;2023-07-28T08:23:06;4.80;;;2.93;;
1775;SDS011;885;42.626;23.200;2023-07-28T08:25:33;3.43;;;3.10;;
1775;SDS011;885;42.626;23.200;2023-07-28T08:28:00;3.20;;;2.90;;
1775;SDS011;885;42.626;23.200;2023-07-28T08:30:27;2.93;;;2.60;;
1775;SDS011;885;42.626;23.200;2023-07-28T08:32:53;3.47;;;2.73;;
1775;SDS011;885;42.626;23.200;2023-07-28T08:35:20;4.10;;;2.93;;
1775;SDS011;885;42.626;23.200;2023-07-28T08:37:48;4.10;;;2.70;;
1775;SDS011;885;42.626;23.200;2023-07-28T08:40:16;2.83;;;2.33;;
1775;SDS011;885;42.626;23.200;2023-07-28T08:42:42;3.53;;;2.97;;
1775;SDS011;885;42.626;23.200;2023-07-28T08:45:10;4.90;;;3.10;;
1775;SDS011;885;42.626;23.200;2023-07-28T08:47:38;8.30;;;2.70;;
1775;SDS011;885;42.626;23.200;2023-07-28T08:50:05;2.63;;;2.43;;
1775;SDS011;885;42.626;23.200;2023-07-28T08:52:32;5.37;;;3.37;;
1775;SDS011;885;42.626;23.200;2023-07-28T08:55:00;2.70;;;2.50;;
1775;SDS011;885;42.626;23.200;2023-07-28T08:57:28;2.37;;;2.17;;
1775;SDS011;885;42.626;23.200;2023-07-28T08:59:54;3.73;;;2.47;;
1775;SDS011;885;42.626;23.200;2023-07-28T09:02:21;3.00;;;2.73;;
1775;SDS011;885;42.626;23.200;2023-07-28T09:04:49;3.60;;;2.50;;
1775;SDS011;885;42.626;23.200;2023-07-28T09:07:16;3.63;;;2.60;;
1775;SDS011;885;42.626;23.200;2023-07-28T09:09:43;2.90;;;2.70;;
1775;SDS011;885;42.626;23.200;2023-07-28T09:12:12;2.77;;;2.40;;
1775;SDS011;885;42.626;23.200;2023-07-28T09:14:39;2.93;;;2.63;;
1775;SDS011;885;42.626;23.200;2023-07-28T09:17:07;3.17;;;2.87;;
1775;SDS011;885;42.626;23.200;2023-07-28T09:19:35;3.10;;;2.80;;
1775;SDS011;885;42.626;23.200;2023-07-28T09:22:20;2.90;;;2.00;;
1775;SDS011;885;42.626;23.200;2023-07-28T09:24:47;3.43;;;3.13;;
1775;SDS011;885;42.626;23.200;2023-07-28T09:27:22;2.70;;;2.50;;
1775;SDS011;885;42.626;23.200;2023-07-28T09:29:50;4.17;;;3.10;;
1775;SDS011;885;42.626;23.200;2023-07-28T09:32:26;4.83;;;2.80;;
1775;SDS011;885;42.626;23.200;2023-07-28T09:35:05;2.90;;;2.60;;
1775;SDS011;885;42.626;23.200;2023-07-28T09:37:35;4.20;;;2.70;;
1775;SDS011;885;42.626;23.200;2023-07-28T09:40:05;3.60;;;3.30;;
1775;SDS011;885;42.626;23.200;2023-07-28T09:42:38;4.07;;;2.63;;
1775;SDS011;885;42.626;23.200;2023-07-28T09:45:05;2.73;;;2.43;;
1775;SDS011;885;42.626;23.200;2023-07-28T09:47:33;3.90;;;2.50;;
1775;SDS011;885;42.626;23.200;2023-07-28T09:50:02;3.10;;;2.50;;
1775;SDS011;885;42.626;23.200;2023-07-28T09:52:31;3.83;;;3.27;;
1775;SDS011;885;42.626;23.200;2023-07-28T09:55:03;5.73;;;2.60;;
1775;SDS011;885;42.626;23.200;2023-07-28T09:57:34;4.17;;;2.70;;
1775;SDS011;885;42.626;23.200;2023-07-28T10:00:05;3.67;;;2.33;;
1775;SDS011;885;42.626;23.200;2023-07-28T10:02:35;3.13;;;2.80;;
1775;SDS011;885;42.626;23.200;2023-07-28T10:05:03;4.30;;;3.33;;
1775;SDS011;885;42.626;23.200;2023-07-28T10:07:32;4.10;;;2.80;;
1775;SDS011;885;42.626;23.200;2023-07-28T10:10:00;2.87;;;2.60;;
1775;SDS011;885;42.626;23.200;2023-07-28T10:12:28;3.50;;;2.60;;
1775;SDS011;885;42.626;23.200;2023-07-28T10:15:01;3.30;;;2.33;;
1775;SDS011;885;42.626;23.200;2023-07-28T10:17:32;5.13;;;3.10;;
1775;SDS011;885;42.626;23.200;2023-07-28T10:20:00;2.67;;;2.47;;
1775;SDS011;885;42.626;23.200;2023-07-28T10:22:32;2.70;;;2.50;;
1775;SDS011;885;42.626;23.200;2023-07-28T10:25:00;3.00;;;2.10;;
1775;SDS011;885;42.626;23.200;2023-07-28T10:27:31;3.93;;;2.60;;
1775;SDS011;885;42.626;23.200;2023-07-28T10:30:01;5.87;;;2.70;;
1775;SDS011;885;42.626;23.200;2023-07-28T10:32:38;4.80;;;2.80;;
1775;SDS011;885;42.626;23.200;2023-07-28T10:35:06;3.10;;;2.73;;
1775;SDS011;885;42.626;23.200;2023-07-28T10:37:34;4.10;;;2.90;;
1775;SDS011;885;42.626;23.200;2023-07-28T10:42:51;4.37;;;3.47;;
1775;SDS011;885;42.626;23.200;2023-07-28T10:45:18;3.47;;;3.07;;
1775;SDS011;885;42.626;23.200;2023-07-28T10:47:46;4.17;;;2.63;;
1775;SDS011;885;42.626;23.200;2023-07-28T10:50:14;4.57;;;4.20;;
1775;SDS011;885;42.626;23.200;2023-07-28T10:52:41;4.67;;;3.00;;
1775;SDS011;885;42.626;23.200;2023-07-28T10:55:12;3.07;;;2.77;;
1775;SDS011;885;42.626;23.200;2023-07-28T10:57:40;2.80;;;2.57;;
1775;SDS011;885;42.626;23.200;2023-07-28T11:00:09;3.27;;;2.30;;
1775;SDS011;885;42.626;23.200;2023-07-28T11:02:38;3.23;;;2.93;;
1775;SDS011;885;42.626;23.200;2023-07-28T11:05:09;4.97;;;3.30;;
1775;SDS011;885;42.626;23.200;2023-07-28T11:07:37;3.90;;;3.23;;
1775;SDS011;885;42.626;23.200;2023-07-28T11:10:07;3.33;;;2.37;;
1775;SDS011;885;42.626;23.200;2023-07-28T11:12:34;8.43;;;2.70;;
1775;SDS011;885;42.626;23.200;2023-07-28T11:15:01;2.90;;;2.60;;
1775;SDS011;885;42.626;23.200;2023-07-28T11:17:28;3.23;;;2.93;;
1775;SDS011;885;42.626;23.200;2023-07-28T11:19:55;8.00;;;3.40;;
1775;SDS011;885;42.626;23.200;2023-07-28T11:22:23;4.10;;;3.10;;
1775;SDS011;885;42.626;23.200;2023-07-28T11:24:50;3.73;;;3.00;;
1775;SDS011;885;42.626;23.200;2023-07-28T11:27:18;3.67;;;3.07;;
1775;SDS011;885;42.626;23.200;2023-07-28T11:29:45;3.93;;;2.93;;
1775;SDS011;885;42.626;23.200;2023-07-28T11:32:15;3.20;;;2.60;;
1775;SDS011;885;42.626;23.200;2023-07-28T11:34:42;3.50;;;3.17;;
1775;SDS011;885;42.626;23.200;2023-07-28T11:37:09;5.70;;;3.50;;
1775;SDS011;885;42.626;23.200;2023-07-28T11:39:38;5.43;;;3.37;;
1775;SDS011;885;42.626;23.200;2023-07-28T11:42:06;5.57;;;3.00;;
1775;SDS011;885;42.626;23.200;2023-07-28T11:44:35;3.30;;;2.77;;
1775;SDS011;885;42.626;23.200;2023-07-28T11:47:04;3.60;;;3.30;;
1775;SDS011;885;42.626;23.200;2023-07-28T11:49:31;4.80;;;3.27;;
1775;SDS011;885;42.626;23.200;2023-07-28T11:51:58;2.50;;;2.30;;
1775;SDS011;885;42.626;23.200;2023-07-28T11:54:26;5.60;;;3.30;;
1775;SDS011;885;42.626;23.200;2023-07-28T11:56:55;3.27;;;2.97;;
1775;SDS011;885;42.626;23.200;2023-07-28T11:59:23;3.80;;;3.30;;
1775;SDS011;885;42.626;23.200;2023-07-28T12:01:53;3.70;;;3.00;;
1775;SDS011;885;42.626;23.200;2023-07-28T12:04:21;5.30;;;3.60;;
1775;SDS011;885;42.626;23.200;2023-07-28T12:07:05;3.77;;;3.23;;
1775;SDS011;885;42.626;23.200;2023-07-28T12:09:33;4.90;;;3.47;;
1775;SDS011;885;42.626;23.200;2023-07-28T12:12:15;4.17;;;3.10;;
1775;SDS011;885;42.626;23.200;2023-07-28T12:14:43;3.60;;;2.60;;
1775;SDS011;885;42.626;23.200;2023-07-28T12:17:11;3.43;;;3.13;;
1775;SDS011;885;42.626;23.200;2023-07-28T12:19:40;3.57;;;3.27;;
1775;SDS011;885;42.626;23.200;2023-07-28T12:22:07;3.43;;;3.13;;
1775;SDS011;885;42.626;23.200;2023-07-28T12:24:34;4.00;;;3.10;;
1775;SDS011;885;42.626;23.200;2023-07-28T12:27:01;3.40;;;3.10;;
1775;SDS011;885;42.626;23.200;2023-07-28T12:29:29;3.37;;;3.07;;
1775;SDS011;885;42.626;23.200;2023-07-28T12:31:55;3.60;;;2.60;;
1775;SDS011;885;42.626;23.200;2023-07-28T12:34:22;2.83;;;2.47;;
1775;SDS011;885;42.626;23.200;2023-07-28T12:36:49;5.40;;;3.00;;
1775;SDS011;885;42.626;23.200;2023-07-28T12:39:16;7.30;;;2.97;;
1775;SDS011;885;42.626;23.200;2023-07-28T12:41:42;4.00;;;3.00;;
1775;SDS011;885;42.626;23.200;2023-07-28T12:44:09;3.53;;;2.60;;
1775;SDS011;885;42.626;23.200;2023-07-28T12:46:37;3.00;;;2.73;;
1775;SDS011;885;42.626;23.200;2023-07-28T12:49:05;4.10;;;3.17;;
1775;SDS011;885;42.626;23.200;2023-07-28T12:51:32;3.20;;;2.90;;
1775;SDS011;885;42.626;23.200;2023-07-28T12:53:59;4.37;;;3.13;;
1775;SDS011;885;42.626;23.200;2023-07-28T12:56:25;3.13;;;2.83;;
1775;SDS011;885;42.626;23.200;2023-07-28T12:58:52;2.93;;;2.73;;
1775;SDS011;885;42.626;23.200;2023-07-28T13:01:19;5.13;;;3.10;;
1775;SDS011;885;42.626;23.200;2023-07-28T13:03:47;3.10;;;2.80;;
1775;SDS011;885;42.626;23.200;2023-07-28T13:06:14;3.10;;;2.60;;
1775;SDS011;885;42.626;23.200;2023-07-28T13:08:41;3.13;;;2.80;;
1775;SDS011;885;42.626;23.200;2023-07-28T13:11:07;3.40;;;3.10;;
1775;SDS011;885;42.626;23.200;2023-07-28T13:13:34;3.20;;;2.90;;
1775;SDS011;885;42.626;23.200;2023-07-28T13:16:01;3.30;;;2.83;;
1775;SDS011;885;42.626;23.200;2023-07-28T13:18:28;4.80;;;2.70;;
1775;SDS011;885;42.626;23.200;2023-07-28T13:20:57;4.30;;;3.03;;
1775;SDS011;885;42.626;23.200;2023-07-28T13:23:24;4.13;;;3.10;;
1775;SDS011;885;42.626;23.200;2023-07-28T13:25:51;4.40;;;3.17;;
1775;SDS011;885;42.626;23.200;2023-07-28T13:28:18;3.03;;;2.67;;
1775;SDS011;885;42.626;23.200;2023-07-28T13:30:45;5.03;;;3.33;;
1775;SDS011;885;42.626;23.200;2023-07-28T13:33:11;6.23;;;3.30;;
1775;SDS011;885;42.626;23.200;2023-07-28T13:35:38;3.70;;;3.40;;
1775;SDS011;885;42.626;23.200;2023-07-28T13:38:06;3.33;;;3.03;;
1775;SDS011;885;42.626;23.200;2023-07-28T13:40:34;4.47;;;2.90;;
1775;SDS011;885;42.626;23.200;2023-07-28T13:43:01;3.27;;;2.83;;
1775;SDS011;885;42.626;23.200;2023-07-28T13:45:28;3.27;;;2.90;;
1775;SDS011;885;42.626;23.200;2023-07-28T13:47:55;4.03;;;3.10;;
1775;SDS011;885;42.626;23.200;2023-07-28T13:50:22;5.40;;;2.90;;
1775;SDS011;885;42.626;23.200;2023-07-28T13:52:49;2.97;;;2.50;;
1775;SDS011;885;42.626;23.200;2023-07-28T13:55:17;5.10;;;2.70;;
1775;SDS011;885;42.626;23.200;2023-07-28T13:57:44;3.40;;;3.10;;
1775;SDS011;885;42.626;23.200;2023-07-28T14:00:11;3.13;;;2.90;;
1775;SDS011;885;42.626;23.200;2023-07-28T14:02:39;3.30;;;3.00;;
1775;SDS011;885;42.626;23.200;2023-07-28T14:05:08;3.30;;;3.00;;
1775;SDS011;885;42.626;23.200;2023-07-28T14:07:34;3.67;;;3.10;;
1775;SDS011;885;42.626;23.200;2023-07-28T14:10:02;2.87;;;2.67;;
1775;SDS011;885;42.626;23.200;2023-07-28T14:12:31;5.57;;;2.97;;
1775;SDS011;885;42.626;23.200;2023-07-28T14:14:58;4.73;;;3.13;;
1775;SDS011;885;42.626;23.200;2023-07-28T14:17:24;4.23;;;2.97;;
1775;SDS011;885;42.626;23.200;2023-07-28T14:19:51;3.70;;;3.17;;
1775;SDS011;885;42.626;23.200;2023-07-28T14:22:18;3.97;;;3.63;;
1775;SDS011;885;42.626;23.200;2023-07-28T14:24:45;4.33;;;3.13;;
1775;SDS011;885;42.626;23.200;2023-07-28T14:27:11;3.50;;;3.20;;
1775;SDS011;885;42.626;23.200;2023-07-28T14:29:39;4.80;;;3.70;;
1775;SDS011;885;42.626;23.200;2023-07-28T14:32:07;4.57;;;2.90;;
1775;SDS011;885;42.626;23.200;2023-07-28T14:34:34;3.63;;;3.03;;
1775;SDS011;885;42.626;23.200;2023-07-28T14:37:02;4.57;;;3.20;;
1775;SDS011;885;42.626;23.200;2023-07-28T14:39:31;3.30;;;2.63;;
1775;SDS011;885;42.626;23.200;2023-07-28T14:41:58;3.47;;;3.10;;
1775;SDS011;885;42.626;23.200;2023-07-28T14:44:25;3.50;;;2.90;;
1775;SDS011;885;42.626;23.200;2023-07-28T14:46:53;3.63;;;3.07;;
1775;SDS011;885;42.626;23.200;2023-07-28T14:49:20;4.10;;;3.13;;
1775;SDS011;885;42.626;23.200;2023-07-28T14:51:47;3.03;;;2.50;;
1775;SDS011;885;42.626;23.200;2023-07-28T14:54:13;3.73;;;2.77;;
1775;SDS011;885;42.626;23.200;2023-07-28T14:56:40;3.80;;;2.47;;
1775;SDS011;885;42.626;23.200;2023-07-28T14:59:07;3.57;;;2.73;;
1775;SDS011;885;42.626;23.200;2023-07-28T15:01:34;3.73;;;2.63;;
1775;SDS011;885;42.626;23.200;2023-07-28T15:04:02;2.60;;;2.17;;
1775;SDS011;885;42.626;23.200;2023-07-28T15:06:30;3.03;;;2.70;;
1775;SDS011;885;42.626;23.200;2023-07-28T15:08:57;3.40;;;3.10;;
1775;SDS011;885;42.626;23.200;2023-07-28T15:11:24;3.70;;;3.00;;
1775;SDS011;885;42.626;23.200;2023-07-28T15:13:50;3.57;;;2.83;;
1775;SDS011;885;42.626;23.200;2023-07-28T15:16:17;2.80;;;2.60;;
1775;SDS011;885;42.626;23.200;2023-07-28T15:18:44;3.17;;;2.87;;
1775;SDS011;885;42.626;23.200;2023-07-28T15:21:12;2.97;;;2.77;;